createdAt,value
2023-03-11T00:00:30.708Z,62.94
2023-03-11T00:01:30.677Z,62.65
2023-03-11T00:02:30.686Z,62.94
2023-03-11T00:03:30.671Z,62.84
2023-03-11T00:04:30.659Z,62.84
2023-03-11T00:05:30.802Z,62.84
2023-03-11T00:06:30.641Z,62.74
2023-03-11T00:07:30.656Z,62.74
2023-03-11T00:08:30.659Z,62.94
2023-03-11T00:09:30.656Z,62.94
2023-03-11T00:10:30.624Z,63.03
2023-03-11T00:11:30.641Z,63.03
2023-03-11T00:12:30.628Z,62.74
2023-03-11T00:13:30.630Z,62.74
2023-03-11T00:14:30.612Z,62.84
2023-03-11T00:15:30.622Z,62.74
2023-03-11T00:16:30.695Z,62.84
2023-03-11T00:17:30.607Z,62.74
2023-03-11T00:18:30.647Z,62.84
2023-03-11T00:19:30.622Z,62.84
2023-03-11T00:20:30.605Z,62.37
2023-03-11T00:21:30.612Z,62.84
2023-03-11T00:22:30.555Z,62.94
2023-03-11T00:23:30.611Z,62.84
2023-03-11T00:24:30.618Z,62.84
2023-03-11T00:25:30.558Z,62.84
2023-03-11T00:26:30.548Z,62.94
2023-03-11T00:27:30.540Z,62.84
2023-03-11T00:28:32.970Z,62.94
2023-03-11T00:29:30.520Z,62.84
2023-03-11T00:30:30.556Z,62.94
2023-03-11T00:31:30.511Z,62.84
2023-03-11T00:32:30.528Z,62.84
2023-03-11T00:33:30.522Z,62.74
2023-03-11T00:34:30.492Z,62.74
2023-03-11T00:35:30.646Z,62.84
2023-03-11T00:36:30.485Z,62.65
2023-03-11T00:37:30.493Z,62.74
2023-03-11T00:38:30.541Z,62.84
2023-03-11T00:39:30.462Z,62.94
2023-03-11T00:40:30.507Z,62.74
2023-03-11T00:41:30.468Z,62.84
2023-03-11T00:42:30.450Z,62.74
2023-03-11T00:43:30.459Z,62.84
2023-03-11T00:44:30.433Z,62.74
2023-03-11T00:45:30.443Z,62.84
2023-03-11T00:46:30.527Z,62.84
2023-03-11T00:47:30.432Z,62.74
2023-03-11T00:48:30.418Z,62.84
2023-03-11T00:49:30.425Z,62.84
2023-03-11T00:50:30.420Z,62.84
2023-03-11T00:51:32.531Z,62.74
2023-03-11T00:52:30.398Z,63.03
2023-03-11T00:53:30.396Z,63.13
2023-03-11T00:54:30.382Z,62.84
2023-03-11T00:55:30.385Z,62.94
2023-03-11T00:56:30.384Z,62.84
2023-03-11T00:57:30.381Z,62.65
2023-03-11T00:58:30.366Z,62.74
2023-03-11T00:59:30.373Z,62.65
2023-03-11T01:00:30.359Z,62.74
2023-03-11T01:01:30.543Z,62.46
2023-03-11T01:02:30.358Z,62.84
2023-03-11T01:03:30.336Z,62.55
2023-03-11T01:04:30.364Z,63.13
2023-03-11T01:05:30.327Z,63.13
2023-03-11T01:06:44.471Z,62.84
2023-03-11T01:07:30.314Z,63.03
2023-03-11T01:08:30.466Z,63.13
2023-03-11T01:09:30.301Z,63.13
2023-03-11T01:10:30.288Z,63.23
2023-03-11T01:11:30.276Z,63.23
2023-03-11T01:12:30.314Z,63.13
2023-03-11T01:13:30.290Z,62.94
2023-03-11T01:14:30.286Z,63.23
2023-03-11T01:15:30.270Z,63.13
2023-03-11T01:16:30.277Z,63.23
2023-03-11T01:17:30.246Z,62.84
2023-03-11T01:18:30.259Z,62.84
2023-03-11T01:19:30.245Z,62.84
2023-03-11T01:20:30.257Z,63.13
2023-03-11T01:21:30.236Z,62.94
2023-03-11T01:22:30.230Z,63.03
2023-03-11T01:23:30.233Z,62.84
2023-03-11T01:24:30.213Z,63.13
2023-03-11T01:25:30.202Z,63.13
2023-03-11T01:26:30.217Z,62.94
2023-03-11T01:27:30.203Z,62.84
2023-03-11T01:28:30.213Z,63.03
2023-03-11T01:29:30.182Z,63.13
2023-03-11T01:30:30.199Z,63.13
2023-03-11T01:31:30.234Z,63.03
2023-03-11T01:32:30.184Z,63.03
2023-03-11T01:33:30.171Z,63.13
2023-03-11T01:34:30.159Z,62.94
2023-03-11T01:35:30.197Z,62.94
2023-03-11T01:36:30.166Z,62.94
2023-03-11T01:37:30.171Z,62.94
2023-03-11T01:38:30.131Z,62.84
2023-03-11T01:39:30.141Z,63.13
2023-03-11T01:40:30.151Z,63.03
2023-03-11T01:41:30.107Z,63.03
2023-03-11T01:42:30.110Z,63.13
2023-03-11T01:43:30.097Z,62.94
2023-03-11T01:44:30.144Z,62.84
2023-03-11T01:45:30.099Z,63.13
2023-03-11T01:46:30.098Z,63.13
2023-03-11T01:47:30.095Z,62.94
2023-03-11T01:48:30.100Z,62.94
2023-03-11T01:49:30.065Z,63.03
2023-03-11T01:50:30.079Z,63.03
2023-03-11T01:51:30.061Z,63.23
2023-03-11T01:52:30.070Z,62.94
2023-03-11T01:53:30.042Z,62.94
2023-03-11T01:54:30.057Z,62.84
2023-03-11T01:55:30.048Z,62.94
2023-03-11T01:56:30.052Z,63.03
2023-03-11T01:57:30.062Z,63.23
2023-03-11T01:58:30.045Z,62.94
2023-03-11T01:59:30.026Z,62.84
2023-03-11T02:00:30.040Z,62.94
2023-03-11T02:01:30.075Z,62.94
2023-03-11T02:02:30.060Z,62.84
2023-03-11T02:03:29.990Z,62.94
2023-03-11T02:04:29.999Z,63.23
2023-03-11T02:05:29.983Z,62.94
2023-03-11T02:06:29.989Z,62.94
2023-03-11T02:07:29.983Z,63.13
2023-03-11T02:08:29.990Z,63.13
2023-03-11T02:09:29.971Z,63.13
2023-03-11T02:10:29.959Z,63.23
2023-03-11T02:11:29.946Z,63.03
2023-03-11T02:12:29.950Z,63.13
2023-03-11T02:13:29.942Z,62.94
2023-03-11T02:15:16.619Z,62.94
2023-03-11T02:16:16.658Z,63.13
2023-03-11T02:17:16.747Z,63.13
2023-03-11T02:18:16.597Z,63.13
2023-03-11T02:19:16.606Z,63.13
2023-03-11T02:20:16.582Z,63.13
2023-03-11T02:21:16.593Z,63.13
2023-03-11T02:22:16.580Z,62.94
2023-03-11T02:23:16.591Z,63.23
2023-03-11T02:24:16.580Z,63.13
2023-03-11T02:25:16.569Z,63.13
2023-03-11T02:26:16.566Z,62.84
2023-03-11T02:27:16.553Z,63.13
2023-03-11T02:28:16.540Z,63.03
2023-03-11T02:29:16.540Z,63.13
2023-03-11T02:30:16.526Z,63.13
2023-03-11T02:31:16.606Z,62.94
2023-03-11T02:32:16.593Z,63.03
2023-03-11T02:33:16.525Z,62.94
2023-03-11T02:34:16.506Z,63.03
2023-03-11T02:35:16.504Z,63.03
2023-03-11T02:36:16.508Z,63.03
2023-03-11T02:37:16.521Z,62.84
2023-03-11T02:38:16.497Z,63.13
2023-03-11T02:39:16.484Z,62.74
2023-03-11T02:40:16.477Z,62.84
2023-03-11T02:41:16.494Z,63.13
2023-03-11T02:42:16.464Z,62.84
2023-03-11T02:43:16.461Z,62.84
2023-03-11T02:44:16.694Z,62.74
2023-03-11T02:45:16.475Z,62.74
2023-03-11T02:46:16.535Z,63.13
2023-03-11T02:47:16.457Z,63.13
2023-03-11T02:48:16.450Z,62.84
2023-03-11T02:49:16.435Z,62.94
2023-03-11T02:50:16.428Z,62.94
2023-03-11T02:51:16.418Z,63.13
2023-03-11T02:52:16.413Z,62.84
2023-03-11T02:53:16.417Z,63.13
2023-03-11T02:54:16.403Z,62.84
2023-03-11T02:55:16.401Z,63.23
2023-03-11T02:56:16.394Z,63.03
2023-03-11T02:57:16.381Z,63.03
2023-03-11T02:58:16.375Z,62.94
2023-03-11T02:59:16.387Z,62.84
2023-03-11T03:00:16.360Z,62.84
2023-03-11T03:01:16.460Z,63.03
2023-03-11T03:02:16.354Z,62.84
2023-03-11T03:03:16.353Z,63.13
2023-03-11T03:04:16.431Z,62.74
2023-03-11T03:05:16.347Z,62.84
2023-03-11T03:06:16.333Z,63.03
2023-03-11T03:07:16.335Z,63.13
2023-03-11T03:08:16.314Z,62.74
2023-03-11T03:09:16.314Z,63.13
2023-03-11T03:10:16.318Z,63.13
2023-03-11T03:11:16.298Z,63.13
2023-03-11T03:12:16.297Z,63.13
2023-03-11T03:13:16.305Z,63.03
2023-03-11T03:14:16.294Z,63.13
2023-03-11T03:15:16.279Z,62.94
2023-03-11T03:16:16.323Z,63.03
2023-03-11T03:17:16.338Z,63.13
2023-03-11T03:18:16.275Z,63.23
2023-03-11T03:19:16.254Z,63.03
2023-03-11T03:20:16.270Z,63.13
2023-03-11T03:21:16.250Z,63.13
2023-03-11T03:22:16.241Z,63.13
2023-03-11T03:23:16.233Z,63.23
2023-03-11T03:24:16.223Z,63.03
2023-03-11T03:25:16.226Z,62.84
2023-03-11T03:26:16.221Z,62.84
2023-03-11T03:27:16.204Z,62.84
2023-03-11T03:28:16.200Z,62.94
2023-03-11T03:29:16.205Z,63.13
2023-03-11T03:30:16.213Z,62.84
2023-03-11T03:31:16.209Z,63.13
2023-03-11T03:32:16.210Z,63.03
2023-03-11T03:33:16.211Z,63.13
2023-03-11T03:34:16.170Z,62.84
2023-03-11T03:35:16.165Z,63.13
2023-03-11T03:36:16.187Z,63.03
2023-03-11T03:37:16.160Z,63.03
2023-03-11T03:38:16.158Z,63.13
2023-03-11T03:39:16.163Z,63.13
2023-03-11T03:40:16.141Z,63.03
2023-03-11T03:41:16.179Z,63.03
2023-03-11T03:42:16.139Z,62.84
2023-03-11T03:43:16.134Z,62.74
2023-03-11T03:44:16.131Z,62.84
2023-03-11T03:45:16.118Z,62.84
2023-03-11T03:46:16.168Z,63.13
2023-03-11T03:47:16.100Z,62.84
2023-03-11T03:48:16.109Z,62.84
2023-03-11T03:49:16.099Z,63.13
2023-03-11T03:50:16.078Z,63.03
2023-03-11T03:51:16.090Z,62.94
2023-03-11T03:52:16.095Z,62.94
2023-03-11T03:53:16.086Z,62.84
2023-03-11T03:54:16.072Z,62.84
2023-03-11T03:55:16.060Z,63.13
2023-03-11T03:56:16.061Z,63.13
2023-03-11T03:57:16.054Z,63.13
2023-03-11T03:58:16.053Z,63.13
2023-03-11T03:59:16.038Z,62.84
2023-03-11T04:00:16.029Z,62.94
2023-03-11T04:01:16.028Z,62.84
2023-03-11T04:02:16.142Z,62.94
2023-03-11T04:03:16.069Z,62.84
2023-03-11T04:04:15.999Z,63.03
2023-03-11T04:05:16.011Z,63.13
2023-03-11T04:06:16.024Z,62.84
2023-03-11T04:07:15.989Z,62.94
2023-03-11T04:08:16.023Z,63.03
2023-03-11T04:09:15.983Z,62.84
2023-03-11T04:10:15.989Z,62.84
2023-03-11T04:11:15.969Z,62.84
2023-03-11T04:12:15.963Z,62.84
2023-03-11T04:13:15.961Z,63.13
2023-03-11T04:14:15.965Z,63.13
2023-03-11T04:15:15.952Z,62.94
2023-03-11T04:16:16.029Z,62.94
2023-03-11T04:17:15.953Z,63.13
2023-03-11T04:18:15.921Z,62.94
2023-03-11T04:19:15.933Z,63.03
2023-03-11T04:20:15.926Z,62.94
2023-03-11T04:21:15.912Z,63.13
2023-03-11T04:22:15.904Z,62.94
2023-03-11T04:23:15.909Z,63.13
2023-03-11T04:24:15.911Z,63.13
2023-03-11T04:25:15.894Z,63.23
2023-03-11T04:26:15.892Z,62.94
2023-03-11T04:27:15.873Z,62.94
2023-03-11T04:28:15.885Z,63.13
2023-03-11T04:29:15.869Z,63.13
2023-03-11T04:30:15.853Z,63.13
2023-03-11T04:31:15.878Z,63.13
2023-03-11T04:32:15.873Z,63.13
2023-03-11T04:33:15.848Z,62.94
2023-03-11T04:34:15.829Z,63.13
2023-03-11T04:35:15.836Z,63.13
2023-03-11T04:36:15.820Z,63.23
2023-03-11T04:37:15.836Z,63.13
2023-03-11T04:38:15.803Z,63.13
2023-03-11T04:39:15.818Z,62.84
2023-03-11T04:40:15.855Z,63.23
2023-03-11T04:41:15.800Z,63.23
2023-03-11T04:42:15.794Z,62.94
2023-03-11T04:43:15.790Z,62.94
2023-03-11T04:44:15.784Z,62.94
2023-03-11T04:45:15.792Z,63.13
2023-03-11T04:46:15.871Z,62.74
2023-03-11T04:47:15.771Z,63.23
2023-03-11T04:48:15.769Z,63.13
2023-03-11T04:49:15.769Z,62.65
2023-03-11T04:50:15.760Z,62.84
2023-03-11T04:51:15.747Z,62.84
2023-03-11T04:52:15.727Z,63.03
2023-03-11T04:53:15.739Z,62.65
2023-03-11T04:54:15.743Z,62.84
2023-03-11T04:55:15.706Z,62.84
2023-03-11T04:56:15.737Z,62.94
2023-03-11T04:57:15.715Z,62.84
2023-03-11T04:58:15.721Z,62.84
2023-03-11T04:59:15.688Z,62.84
2023-03-11T05:00:15.786Z,63.03
2023-03-11T05:01:15.717Z,63.03
2023-03-11T05:02:15.684Z,63.13
2023-03-11T05:03:15.687Z,63.13
2023-03-11T05:04:15.743Z,62.94
2023-03-11T05:05:15.668Z,62.94
2023-03-11T05:06:15.657Z,63.13
2023-03-11T05:07:15.638Z,62.94
2023-03-11T05:08:15.751Z,63.03
2023-03-11T05:09:15.648Z,63.13
2023-03-11T05:10:15.662Z,63.13
2023-03-11T05:11:15.616Z,62.94
2023-03-11T05:12:15.628Z,62.94
2023-03-11T05:13:15.612Z,63.13
2023-03-11T05:14:15.657Z,63.23
2023-03-11T05:15:15.602Z,62.84
2023-03-11T05:16:15.658Z,63.23
2023-03-11T05:17:15.595Z,62.84
2023-03-11T05:18:15.595Z,62.74
2023-03-11T05:19:15.571Z,62.84
2023-03-11T05:20:16.033Z,62.65
2023-03-11T05:21:15.580Z,62.74
2023-03-11T05:22:15.563Z,62.65
2023-03-11T05:23:15.569Z,63.13
2023-03-11T05:24:15.539Z,62.84
2023-03-11T05:25:15.551Z,63.03
2023-03-11T05:26:15.577Z,62.84
2023-03-11T05:27:15.540Z,62.84
2023-03-11T05:28:15.553Z,63.03
2023-03-11T05:29:15.523Z,62.84
2023-03-11T05:30:15.524Z,63.13
2023-03-11T05:31:15.566Z,62.84
2023-03-11T05:32:15.574Z,62.84
2023-03-11T05:33:15.510Z,63.13
2023-03-11T05:34:15.494Z,63.13
2023-03-11T05:35:15.509Z,62.94
2023-03-11T05:36:15.472Z,62.84
2023-03-11T05:37:15.486Z,62.84
2023-03-11T05:38:15.497Z,62.84
2023-03-11T05:39:15.459Z,62.84
2023-03-11T05:40:15.483Z,62.74
2023-03-11T05:41:15.466Z,62.74
2023-03-11T05:42:15.436Z,63.03
2023-03-11T05:43:15.455Z,62.84
2023-03-11T05:44:15.449Z,62.55
2023-03-11T05:45:15.446Z,62.84
2023-03-11T05:46:15.557Z,62.74
2023-03-11T05:47:15.412Z,62.84
2023-03-11T05:48:15.415Z,62.74
2023-03-11T05:49:15.408Z,62.84
2023-03-11T05:50:15.405Z,62.84
2023-03-11T05:51:15.419Z,62.94
2023-03-11T05:52:15.394Z,62.65
2023-03-11T05:53:15.379Z,62.84
2023-03-11T05:54:15.434Z,62.74
2023-03-11T05:55:15.377Z,62.55
2023-03-11T05:56:15.380Z,62.84
2023-03-11T05:57:15.389Z,62.65
2023-03-11T05:58:15.422Z,63.00
2023-03-11T05:59:16.576Z,62.74
2023-03-11T06:00:15.371Z,62.74
2023-03-11T06:01:15.332Z,62.74
2023-03-11T06:02:15.323Z,62.74
2023-03-11T06:03:15.317Z,62.65
2023-03-11T06:04:15.467Z,62.27
2023-03-11T06:05:15.461Z,62.90
2023-03-11T06:06:15.324Z,62.81
2023-03-11T06:07:15.307Z,62.81
2023-03-11T06:08:15.287Z,62.81
2023-03-11T06:09:15.280Z,62.84
2023-03-11T06:10:15.295Z,62.74
2023-03-11T06:11:15.291Z,62.84
2023-03-11T06:12:15.289Z,62.94
2023-03-11T06:13:15.267Z,62.81
2023-03-11T06:14:15.273Z,62.81
2023-03-11T06:15:15.246Z,62.71
2023-03-11T06:16:15.314Z,62.71
2023-03-11T06:17:15.244Z,62.90
2023-03-11T06:18:15.262Z,62.71
2023-03-11T06:19:15.229Z,62.74
2023-03-11T06:20:15.231Z,63.00
2023-03-11T06:21:15.234Z,62.71
2023-03-11T06:22:15.224Z,63.00
2023-03-11T06:23:15.196Z,62.71
2023-03-11T06:24:15.216Z,63.03
2023-03-11T06:25:15.209Z,62.84
2023-03-11T06:26:15.198Z,63.03
2023-03-11T06:27:15.178Z,63.03
2023-03-11T06:28:15.185Z,62.94
2023-03-11T06:29:15.178Z,63.00
2023-03-11T06:30:15.165Z,63.00
2023-03-11T06:31:15.256Z,63.00
2023-03-11T06:32:15.330Z,63.03
2023-03-11T06:33:15.152Z,63.03
2023-03-11T06:34:15.149Z,63.00
2023-03-11T06:35:15.139Z,63.03
2023-03-11T06:36:15.132Z,63.03
2023-03-11T06:37:15.132Z,63.03
2023-03-11T06:38:15.116Z,63.00
2023-03-11T06:39:15.126Z,63.03
2023-03-11T06:40:15.106Z,63.03
2023-03-11T06:41:15.109Z,63.00
2023-03-11T06:42:15.111Z,62.55
2023-03-11T06:43:15.087Z,63.13
2023-03-11T06:44:15.085Z,62.65
2023-03-11T06:45:15.084Z,62.65
2023-03-11T06:46:15.171Z,62.74
2023-03-11T06:47:15.076Z,62.74
2023-03-11T06:48:15.089Z,63.00
2023-03-11T06:49:15.063Z,62.55
2023-03-11T06:50:15.062Z,63.03
2023-03-11T06:51:15.044Z,62.74
2023-03-11T06:52:15.066Z,62.55
2023-03-11T06:53:15.015Z,63.00
2023-03-11T06:54:15.037Z,63.03
2023-03-11T06:55:15.021Z,63.03
2023-03-11T06:56:15.039Z,62.90
2023-03-11T06:57:15.001Z,62.55
2023-03-11T06:58:15.006Z,62.65
2023-03-11T06:59:15.001Z,62.52
2023-03-11T07:00:15.171Z,62.84
2023-03-11T07:01:15.062Z,62.81
2023-03-11T07:02:14.973Z,62.84
2023-03-11T07:03:14.985Z,62.84
2023-03-11T07:04:15.050Z,62.84
2023-03-11T07:05:14.959Z,62.71
2023-03-11T07:06:14.980Z,63.03
2023-03-11T07:07:15.011Z,62.84
2023-03-11T07:08:14.959Z,62.90
2023-03-11T07:09:14.925Z,62.81
2023-03-11T07:10:14.945Z,63.00
2023-03-11T07:11:14.919Z,62.90
2023-03-11T07:12:14.951Z,62.90
2023-03-11T07:13:15.392Z,63.03
2023-03-11T07:14:14.924Z,63.03
2023-03-11T07:15:15.457Z,62.84
2023-03-11T07:16:15.570Z,62.94
2023-03-11T07:17:15.516Z,62.84
2023-03-11T07:18:14.885Z,62.55
2023-03-11T07:19:14.906Z,62.65
2023-03-11T07:20:14.920Z,62.52
2023-03-11T07:21:14.861Z,62.14
2023-03-11T07:22:15.493Z,62.65
2023-03-11T07:23:14.869Z,62.08
2023-03-11T07:24:15.267Z,62.37
2023-03-11T07:25:14.859Z,62.46
2023-03-11T07:26:15.354Z,62.65
2023-03-11T07:27:15.230Z,62.08
2023-03-11T07:28:15.232Z,62.46
2023-03-11T07:29:15.186Z,62.08
2023-03-11T07:30:14.829Z,62.17
2023-03-11T07:31:14.813Z,62.37
2023-03-11T07:32:15.281Z,62.08
2023-03-11T07:33:15.216Z,62.27
2023-03-11T07:34:15.313Z,61.82
2023-03-11T07:35:15.162Z,61.69
2023-03-11T07:36:14.797Z,61.54
2023-03-11T07:37:15.397Z,61.63
2023-03-11T07:38:14.788Z,61.72
2023-03-11T07:39:14.947Z,61.72
2023-03-11T07:40:15.081Z,61.82
2023-03-11T07:41:14.757Z,61.72
2023-03-11T07:42:15.025Z,61.44
2023-03-11T07:43:15.140Z,61.54
2023-03-11T07:44:14.756Z,61.25
2023-03-11T07:45:15.277Z,61.34
2023-03-11T07:46:15.278Z,61.15
2023-03-11T07:47:14.721Z,61.15
2023-03-11T07:48:14.959Z,60.86
2023-03-11T07:49:15.131Z,60.96
2023-03-11T07:50:14.747Z,60.96
2023-03-11T07:51:14.757Z,60.67
2023-03-11T07:52:14.721Z,60.96
2023-03-11T07:53:14.706Z,60.77
2023-03-11T07:54:14.715Z,61.05
2023-03-11T07:55:14.689Z,61.18
2023-03-11T07:56:14.688Z,61.18
2023-03-11T07:57:14.691Z,61.08
2023-03-11T07:58:14.694Z,60.80
2023-03-11T07:59:14.677Z,60.61
2023-03-11T08:00:14.685Z,60.89
2023-03-11T08:01:14.669Z,60.89
2023-03-11T08:02:14.683Z,60.70
2023-03-11T08:03:14.740Z,60.61
2023-03-11T08:04:14.829Z,60.70
2023-03-11T08:05:14.646Z,60.89
2023-03-11T08:06:14.630Z,60.51
2023-03-11T08:07:14.642Z,60.41
2023-03-11T08:08:14.654Z,60.32
2023-03-11T08:09:14.659Z,60.13
2023-03-11T08:10:14.637Z,60.22
2023-03-11T08:11:14.614Z,60.22
2023-03-11T08:12:14.601Z,60.41
2023-03-11T08:13:14.603Z,60.32
2023-03-11T08:14:14.589Z,59.94
2023-03-11T08:15:14.584Z,59.94
2023-03-11T08:16:14.600Z,59.94
2023-03-11T08:17:14.584Z,59.87
2023-03-11T08:18:14.573Z,60.06
2023-03-11T08:19:14.598Z,60.35
2023-03-11T08:20:14.591Z,60.25
2023-03-11T08:21:14.577Z,60.25
2023-03-11T08:22:14.570Z,60.35
2023-03-11T08:23:14.549Z,60.16
2023-03-11T08:24:14.583Z,59.97
2023-03-11T08:25:14.566Z,59.87
2023-03-11T08:26:14.562Z,59.87
2023-03-11T08:27:14.531Z,59.97
2023-03-11T08:28:14.577Z,59.52
2023-03-11T08:29:14.543Z,59.48
2023-03-11T08:30:14.524Z,59.33
2023-03-11T08:31:14.588Z,59.42
2023-03-11T08:32:14.576Z,59.52
2023-03-11T08:33:14.516Z,59.42
2023-03-11T08:34:14.527Z,59.42
2023-03-11T08:35:14.496Z,59.52
2023-03-11T08:36:14.497Z,59.52
2023-03-11T08:37:14.499Z,59.42
2023-03-11T08:38:14.513Z,59.61
2023-03-11T08:39:14.540Z,59.33
2023-03-11T08:40:14.514Z,59.33
2023-03-11T08:41:14.480Z,59.52
2023-03-11T08:42:14.471Z,59.71
2023-03-11T08:43:14.482Z,59.71
2023-03-11T08:44:14.465Z,59.52
2023-03-11T08:45:14.454Z,59.90
2023-03-11T08:46:14.536Z,60.28
2023-03-11T08:47:14.478Z,60.09
2023-03-11T08:48:14.462Z,59.90
2023-03-11T08:49:14.457Z,60.28
2023-03-11T08:50:14.450Z,60.28
2023-03-11T08:51:14.473Z,60.09
2023-03-11T08:52:14.441Z,60.09
2023-03-11T08:53:14.438Z,60.00
2023-03-11T08:54:14.461Z,60.25
2023-03-11T08:55:14.427Z,60.44
2023-03-11T08:56:14.448Z,60.35
2023-03-11T08:57:14.413Z,61.02
2023-03-11T08:58:14.429Z,60.93
2023-03-11T08:59:14.401Z,60.83
2023-03-11T09:00:14.395Z,60.64
2023-03-11T09:01:14.699Z,60.93
2023-03-11T09:02:14.426Z,60.93
2023-03-11T09:03:14.414Z,60.64
2023-03-11T09:04:14.397Z,61.02
2023-03-11T09:05:14.385Z,61.11
2023-03-11T09:06:14.480Z,61.11
2023-03-11T09:07:14.377Z,61.11
2023-03-11T09:08:14.389Z,60.93
2023-03-11T09:09:14.385Z,61.02
2023-03-11T09:10:14.362Z,60.93
2023-03-11T09:11:14.359Z,61.11
2023-03-11T09:12:14.397Z,61.02
2023-03-11T09:13:14.360Z,61.02
2023-03-11T09:14:14.377Z,61.21
2023-03-11T09:15:14.359Z,61.11
2023-03-11T09:16:14.381Z,61.40
2023-03-11T09:17:14.326Z,61.21
2023-03-11T09:18:14.336Z,61.31
2023-03-11T09:19:14.327Z,61.40
2023-03-11T09:20:14.343Z,61.31
2023-03-11T09:21:14.315Z,61.50
2023-03-11T09:22:14.327Z,61.08
2023-03-11T09:23:14.324Z,61.21
2023-03-11T09:24:14.306Z,61.50
2023-03-11T09:25:14.305Z,61.40
2023-03-11T09:26:14.324Z,61.69
2023-03-11T09:27:14.295Z,61.50
2023-03-11T09:28:14.341Z,61.60
2023-03-11T09:29:14.281Z,61.79
2023-03-11T09:30:14.302Z,61.69
2023-03-11T09:31:14.325Z,61.85
2023-03-11T09:32:14.381Z,61.85
2023-03-11T09:33:14.279Z,62.04
2023-03-11T09:34:16.154Z,61.66
2023-03-11T09:35:14.248Z,61.76
2023-03-11T09:36:14.283Z,61.57
2023-03-11T09:37:14.251Z,61.57
2023-03-11T09:38:14.241Z,61.57
2023-03-11T09:39:14.269Z,61.94
2023-03-11T09:40:14.255Z,61.37
2023-03-11T09:41:14.224Z,61.57
2023-03-11T09:42:14.244Z,61.66
2023-03-11T09:43:14.226Z,61.76
2023-03-11T09:44:14.270Z,61.57
2023-03-11T09:45:14.208Z,61.57
2023-03-11T09:46:14.271Z,61.76
2023-03-11T09:47:14.230Z,61.94
2023-03-11T09:48:14.211Z,62.04
2023-03-11T09:49:14.209Z,61.66
2023-03-11T09:50:14.197Z,61.85
2023-03-11T09:51:14.206Z,61.76
2023-03-11T09:52:14.203Z,62.04
2023-03-11T09:53:14.165Z,62.04
2023-03-11T09:54:14.171Z,62.43
2023-03-11T09:55:14.166Z,61.94
2023-03-11T09:56:14.158Z,62.33
2023-03-11T09:57:14.147Z,62.14
2023-03-11T09:58:14.148Z,62.14
2023-03-11T09:59:14.152Z,62.14
2023-03-11T10:00:14.156Z,62.14
2023-03-11T10:01:14.153Z,62.14
2023-03-11T10:02:14.337Z,62.23
2023-03-11T10:03:14.165Z,62.23
2023-03-11T10:04:14.116Z,62.33
2023-03-11T10:05:14.125Z,62.33
2023-03-11T10:06:14.132Z,62.33
2023-03-11T10:07:14.114Z,62.33
2023-03-11T10:08:14.103Z,62.43
2023-03-11T10:09:14.120Z,62.33
2023-03-11T10:10:14.089Z,62.52
2023-03-11T10:11:14.082Z,62.14
2023-03-11T10:12:14.096Z,62.23
2023-03-11T10:13:14.085Z,62.23
2023-03-11T10:14:14.080Z,62.33
2023-03-11T10:15:14.073Z,62.23
2023-03-11T10:16:14.174Z,62.23
2023-03-11T10:17:14.066Z,62.33
2023-03-11T10:18:14.076Z,62.04
2023-03-11T10:19:14.040Z,62.14
2023-03-11T10:20:14.066Z,62.52
2023-03-11T10:21:14.033Z,62.81
2023-03-11T10:22:14.046Z,62.14
2023-03-11T10:23:14.034Z,62.71
2023-03-11T10:24:14.029Z,62.62
2023-03-11T10:25:14.032Z,62.62
2023-03-11T10:26:14.016Z,62.43
2023-03-11T10:27:14.013Z,62.62
2023-03-11T10:28:14.004Z,62.52
2023-03-11T10:29:14.024Z,62.52
2023-03-11T10:30:13.988Z,62.62
2023-03-11T10:31:14.013Z,62.52
2023-03-11T10:32:14.027Z,62.71
2023-03-11T10:33:13.993Z,62.59
2023-03-11T10:34:13.994Z,62.62
2023-03-11T10:35:13.992Z,62.62
2023-03-11T10:36:14.034Z,61.85
2023-03-11T10:37:13.973Z,62.62
2023-03-11T10:38:13.967Z,62.59
2023-03-11T10:39:13.970Z,62.59
2023-03-11T10:40:13.954Z,62.68
2023-03-11T10:41:13.963Z,62.68
2023-03-11T10:42:13.940Z,62.68
2023-03-11T10:43:13.954Z,62.68
2023-03-11T10:44:13.936Z,62.68
2023-03-11T10:45:13.954Z,62.77
2023-03-11T10:46:13.970Z,62.40
2023-03-11T10:47:13.930Z,62.49
2023-03-11T10:48:13.924Z,62.59
2023-03-11T10:49:13.903Z,62.49
2023-03-11T10:50:13.901Z,62.59
2023-03-11T10:51:13.897Z,62.40
2023-03-11T10:52:13.906Z,62.40
2023-03-11T10:53:13.900Z,62.49
2023-03-11T10:54:13.891Z,62.49
2023-03-11T10:55:13.886Z,62.40
2023-03-11T10:56:16.022Z,62.49
2023-03-11T10:57:13.886Z,62.40
2023-03-11T10:58:13.869Z,62.30
2023-03-11T10:59:13.877Z,62.59
2023-03-11T11:00:13.870Z,62.49
2023-03-11T11:01:13.966Z,62.49
2023-03-11T11:02:13.838Z,62.49
2023-03-11T11:03:13.854Z,62.49
2023-03-11T11:04:13.875Z,62.49
2023-03-11T11:05:13.852Z,62.40
2023-03-11T11:06:13.832Z,62.40
2023-03-11T11:07:13.844Z,62.49
2023-03-11T11:08:13.837Z,62.49
2023-03-11T11:09:13.830Z,62.59
2023-03-11T11:10:13.812Z,62.49
2023-03-11T11:11:13.912Z,62.49
2023-03-11T11:12:13.819Z,62.49
2023-03-11T11:13:13.810Z,62.59
2023-03-11T11:14:13.786Z,62.49
2023-03-11T11:15:13.796Z,62.49
2023-03-11T11:16:13.816Z,62.49
2023-03-11T11:17:13.784Z,62.49
2023-03-11T11:18:13.790Z,62.40
2023-03-11T11:19:13.768Z,62.49
2023-03-11T11:20:13.772Z,62.49
2023-03-11T11:21:13.755Z,62.59
2023-03-11T11:22:13.743Z,62.40
2023-03-11T11:23:13.746Z,62.40
2023-03-11T11:24:13.754Z,62.49
2023-03-11T11:25:13.787Z,62.49
2023-03-11T11:26:13.751Z,62.59
2023-03-11T11:27:13.750Z,62.40
2023-03-11T11:28:13.728Z,62.49
2023-03-11T11:29:13.725Z,62.49
2023-03-11T11:30:13.745Z,62.49
2023-03-11T11:31:13.747Z,62.40
2023-03-11T11:32:13.728Z,62.49
2023-03-11T11:33:13.703Z,62.49
2023-03-11T11:34:13.693Z,62.40
2023-03-11T11:35:13.702Z,62.40
2023-03-11T11:36:13.715Z,62.59
2023-03-11T11:37:13.680Z,62.49
2023-03-11T11:38:13.691Z,62.49
2023-03-11T11:39:13.670Z,62.49
2023-03-11T11:40:13.675Z,62.40
2023-03-11T11:41:13.685Z,62.49
2023-03-11T11:42:13.663Z,62.59
2023-03-11T11:43:13.674Z,62.59
2023-03-11T11:44:13.653Z,62.59
2023-03-11T11:45:13.654Z,62.59
2023-03-11T11:46:13.721Z,62.77
2023-03-11T11:47:13.641Z,61.91
2023-03-11T11:48:13.625Z,62.77
2023-03-11T11:49:13.652Z,62.68
2023-03-11T11:50:13.630Z,62.77
2023-03-11T11:51:13.622Z,62.77
2023-03-11T11:52:13.656Z,62.68
2023-03-11T11:53:13.598Z,62.40
2023-03-11T11:54:13.605Z,62.59
2023-03-11T11:55:13.606Z,62.68
2023-03-11T11:56:13.592Z,62.59
2023-03-11T11:57:13.593Z,62.68
2023-03-11T11:58:13.575Z,62.77
2023-03-11T11:59:13.595Z,62.68
2023-03-11T12:00:13.578Z,62.77
2023-03-11T12:01:13.583Z,62.77
2023-03-11T12:02:13.549Z,62.68
2023-03-11T12:03:13.620Z,62.77
2023-03-11T12:04:13.542Z,62.77
2023-03-11T12:05:13.591Z,62.77
2023-03-11T12:06:13.529Z,62.68
2023-03-11T12:07:13.542Z,62.77
2023-03-11T12:08:13.544Z,62.20
2023-03-11T12:09:13.540Z,62.68
2023-03-11T12:10:22.993Z,62.77
2023-03-11T12:11:13.527Z,62.01
2023-03-11T12:12:13.521Z,62.77
2023-03-11T12:13:13.527Z,62.68
2023-03-11T12:14:13.513Z,62.59
2023-03-11T12:15:13.502Z,62.59
2023-03-11T12:16:13.552Z,62.49
2023-03-11T12:17:13.493Z,62.59
2023-03-11T12:18:13.489Z,62.59
2023-03-11T12:19:13.497Z,62.49
2023-03-11T12:20:13.474Z,62.68
2023-03-11T12:21:13.476Z,62.40
2023-03-11T12:22:13.456Z,62.59
2023-03-11T12:23:13.476Z,62.59
2023-03-11T12:24:13.468Z,62.40
2023-03-11T12:25:13.445Z,61.91
2023-03-11T12:26:13.442Z,62.59
2023-03-11T12:27:13.456Z,62.59
2023-03-11T12:28:13.433Z,62.77
2023-03-11T12:29:16.014Z,62.68
2023-03-11T12:30:13.513Z,62.68
2023-03-11T12:31:13.482Z,62.59
2023-03-11T12:32:13.446Z,62.77
2023-03-11T12:33:13.408Z,62.68
2023-03-11T12:34:13.411Z,62.59
2023-03-11T12:35:13.416Z,62.11
2023-03-11T12:36:13.403Z,62.49
2023-03-11T12:37:13.400Z,62.59
2023-03-11T12:38:13.407Z,62.59
2023-03-11T12:39:13.377Z,62.40
2023-03-11T12:40:13.426Z,62.20
2023-03-11T12:41:13.392Z,62.59
2023-03-11T12:42:13.381Z,62.30
2023-03-11T12:43:13.374Z,62.59
2023-03-11T12:44:13.369Z,62.59
2023-03-11T12:45:13.367Z,62.20
2023-03-11T12:46:13.447Z,62.77
2023-03-11T12:47:13.351Z,62.30
2023-03-11T12:48:13.344Z,62.68
2023-03-11T12:49:13.362Z,62.68
2023-03-11T12:50:13.334Z,62.40
2023-03-11T12:51:13.330Z,62.68
2023-03-11T12:52:13.319Z,62.77
2023-03-11T12:53:13.732Z,62.68